CheckWX is a tool to help pilots better visualize weather data.  It is not intended as a substitute for an official pre-flight weather briefing.

00:19:38 UTC

MMQT TAF
Querétaro Intercontinental Airport
Querétaro, Mexico
TAF MMQT 251639Z 2518/2618 24005KT P6SM SKC FM260300 07005KT P6SM SKC FM261200 00000KT 5SM HZ SKC

Mar-25@
18:00 UTC

Mar-25 @ 18:00 UTC

Mar-26@
03:00 UTC

Mar-26 @ 03:00 UTC

TAF MMQT 251639Z 2518/2618 24005KT P6SM SKC
Wind
  • 240° at 5 KTS
Cloud Levels
  • Clear skies

Mar-26@
03:00 UTC

Mar-26 @ 03:00 UTC

Mar-26@
12:00 UTC

Mar-26 @ 12:00 UTC

FM260300 07005KT P6SM SKC

From

From Standard forecast or significant change

Wind
  • 070° at 5 KTS
Cloud Levels
  • Clear skies

Mar-26@
12:00 UTC

Mar-26 @ 12:00 UTC

Mar-26@
18:00 UTC

Mar-26 @ 18:00 UTC

FM261200 00000KT 5SM HZ SKC

From

From Standard forecast or significant change

Conditions
Haze
Cloud Levels
  • Clear skies